sensor_id;sensor_type;location;lat;lon;timestamp;P1;P2;P0
76784;PMS7003;66893;44.316;0.092;2024-03-22T00:02:06;17.25;15.25;11.25
76784;PMS7003;66893;44.316;0.092;2024-03-22T00:04:32;15.25;15.25;11.75
76784;PMS7003;66893;44.316;0.092;2024-03-22T00:06:57;17.75;17.25;11.25
76784;PMS7003;66893;44.316;0.092;2024-03-22T00:09:22;15.75;13.75;10.25
76784;PMS7003;66893;44.316;0.092;2024-03-22T00:11:47;18.50;16.75;11.50
76784;PMS7003;66893;44.316;0.092;2024-03-22T00:14:13;19.75;17.50;13.25
76784;PMS7003;66893;44.316;0.092;2024-03-22T00:16:38;15.50;15.50;11.00
76784;PMS7003;66893;44.316;0.092;2024-03-22T00:19:04;15.50;14.25;11.00
76784;PMS7003;66893;44.316;0.092;2024-03-22T00:21:29;23.25;17.50;11.75
76784;PMS7003;66893;44.316;0.092;2024-03-22T00:23:55;16.75;16.00;11.75
76784;PMS7003;66893;44.316;0.092;2024-03-22T00:26:20;18.25;16.75;11.50
76784;PMS7003;66893;44.316;0.092;2024-03-22T00:28:46;18.50;15.75;11.25
76784;PMS7003;66893;44.316;0.092;2024-03-22T00:31:11;16.75;15.75;11.75
76784;PMS7003;66893;44.316;0.092;2024-03-22T00:33:37;20.50;16.75;12.25
76784;PMS7003;66893;44.316;0.092;2024-03-22T00:36:02;10.00;9.50;5.00
76784;PMS7003;66893;44.316;0.092;2024-03-22T00:38:28;16.00;13.50;10.75
76784;PMS7003;66893;44.316;0.092;2024-03-22T00:40:53;16.50;15.00;11.00
76784;PMS7003;66893;44.316;0.092;2024-03-22T00:43:19;17.75;14.25;9.50
76784;PMS7003;66893;44.316;0.092;2024-03-22T00:45:45;20.00;15.50;12.00
76784;PMS7003;66893;44.316;0.092;2024-03-22T00:48:10;19.50;14.75;10.25
76784;PMS7003;66893;44.316;0.092;2024-03-22T00:50:35;15.25;15.25;11.25
76784;PMS7003;66893;44.316;0.092;2024-03-22T00:53:01;16.50;15.50;12.00
76784;PMS7003;66893;44.316;0.092;2024-03-22T00:55:28;14.50;14.50;10.50
76784;PMS7003;66893;44.316;0.092;2024-03-22T00:57:53;18.25;15.75;11.00
76784;PMS7003;66893;44.316;0.092;2024-03-22T01:00:19;19.00;17.75;11.75
76784;PMS7003;66893;44.316;0.092;2024-03-22T01:02:44;18.00;17.25;11.25
76784;PMS7003;66893;44.316;0.092;2024-03-22T01:05:09;14.50;14.50;10.25
76784;PMS7003;66893;44.316;0.092;2024-03-22T01:07:35;18.25;16.25;11.75
76784;PMS7003;66893;44.316;0.092;2024-03-22T01:10:01;18.75;17.75;11.50
76784;PMS7003;66893;44.316;0.092;2024-03-22T01:12:26;19.50;16.00;11.50
76784;PMS7003;66893;44.316;0.092;2024-03-22T01:14:51;16.50;16.50;12.25
76784;PMS7003;66893;44.316;0.092;2024-03-22T01:17:16;18.75;16.00;12.25
76784;PMS7003;66893;44.316;0.092;2024-03-22T01:19:42;19.25;17.25;12.50
76784;PMS7003;66893;44.316;0.092;2024-03-22T01:22:07;17.75;17.75;11.25
76784;PMS7003;66893;44.316;0.092;2024-03-22T01:24:32;18.75;17.50;11.75
76784;PMS7003;66893;44.316;0.092;2024-03-22T01:26:58;20.00;16.50;11.25
76784;PMS7003;66893;44.316;0.092;2024-03-22T01:29:23;17.00;15.00;10.50
76784;PMS7003;66893;44.316;0.092;2024-03-22T01:31:48;18.00;14.25;9.50
76784;PMS7003;66893;44.316;0.092;2024-03-22T01:34:14;16.50;15.00;11.75
76784;PMS7003;66893;44.316;0.092;2024-03-22T01:36:40;18.25;14.25;11.00
76784;PMS7003;66893;44.316;0.092;2024-03-22T01:39:05;17.25;16.25;10.50
76784;PMS7003;66893;44.316;0.092;2024-03-22T01:41:30;13.25;11.50;9.25
76784;PMS7003;66893;44.316;0.092;2024-03-22T01:43:56;19.00;14.00;10.50
76784;PMS7003;66893;44.316;0.092;2024-03-22T01:46:21;17.25;14.50;10.25
76784;PMS7003;66893;44.316;0.092;2024-03-22T01:48:46;15.00;12.00;10.00
76784;PMS7003;66893;44.316;0.092;2024-03-22T01:51:12;15.25;15.25;12.25
76784;PMS7003;66893;44.316;0.092;2024-03-22T01:53:37;15.75;12.00;9.50
76784;PMS7003;66893;44.316;0.092;2024-03-22T01:56:03;20.50;18.00;12.25
76784;PMS7003;66893;44.316;0.092;2024-03-22T01:58:28;15.50;15.00;10.50
76784;PMS7003;66893;44.316;0.092;2024-03-22T02:00:54;17.00;17.00;11.00
76784;PMS7003;66893;44.316;0.092;2024-03-22T02:03:19;12.00;12.00;10.25
76784;PMS7003;66893;44.316;0.092;2024-03-22T02:05:44;19.25;15.75;11.75
76784;PMS7003;66893;44.316;0.092;2024-03-22T02:08:10;19.50;18.00;11.00
76784;PMS7003;66893;44.316;0.092;2024-03-22T02:10:35;13.50;12.25;8.25
76784;PMS7003;66893;44.316;0.092;2024-03-22T02:13:00;13.00;12.50;8.50
76784;PMS7003;66893;44.316;0.092;2024-03-22T02:15:26;18.50;15.00;10.25
76784;PMS7003;66893;44.316;0.092;2024-03-22T02:17:51;15.50;13.75;11.00
76784;PMS7003;66893;44.316;0.092;2024-03-22T02:20:16;15.75;12.25;9.25
76784;PMS7003;66893;44.316;0.092;2024-03-22T02:22:42;16.75;14.25;10.00
76784;PMS7003;66893;44.316;0.092;2024-03-22T02:25:07;18.75;15.50;11.75
76784;PMS7003;66893;44.316;0.092;2024-03-22T02:27:36;14.50;14.50;10.75
76784;PMS7003;66893;44.316;0.092;2024-03-22T02:30:02;16.25;12.50;9.50
76784;PMS7003;66893;44.316;0.092;2024-03-22T02:32:27;19.50;15.25;10.75
76784;PMS7003;66893;44.316;0.092;2024-03-22T02:34:53;15.25;15.25;10.50
76784;PMS7003;66893;44.316;0.092;2024-03-22T02:37:18;13.75;13.75;10.25
76784;PMS7003;66893;44.316;0.092;2024-03-22T02:39:43;18.75;16.50;11.50
76784;PMS7003;66893;44.316;0.092;2024-03-22T02:42:09;20.25;13.75;9.25
76784;PMS7003;66893;44.316;0.092;2024-03-22T02:44:34;19.50;17.50;11.00
76784;PMS7003;66893;44.316;0.092;2024-03-22T02:46:59;19.25;15.50;9.25
76784;PMS7003;66893;44.316;0.092;2024-03-22T02:49:25;17.75;15.25;11.25
76784;PMS7003;66893;44.316;0.092;2024-03-22T02:51:50;17.00;15.50;12.25
76784;PMS7003;66893;44.316;0.092;2024-03-22T02:54:16;19.00;16.00;11.25
76784;PMS7003;66893;44.316;0.092;2024-03-22T02:56:41;17.00;15.25;10.50
76784;PMS7003;66893;44.316;0.092;2024-03-22T02:59:06;18.00;15.75;11.50
76784;PMS7003;66893;44.316;0.092;2024-03-22T03:01:32;18.25;16.50;11.00
76784;PMS7003;66893;44.316;0.092;2024-03-22T03:03:57;19.75;16.25;9.75
76784;PMS7003;66893;44.316;0.092;2024-03-22T03:06:22;16.50;15.25;12.00
76784;PMS7003;66893;44.316;0.092;2024-03-22T03:08:47;12.50;11.50;8.25
76784;PMS7003;66893;44.316;0.092;2024-03-22T03:11:14;20.00;16.75;12.50
76784;PMS7003;66893;44.316;0.092;2024-03-22T03:13:39;19.75;15.50;11.25
76784;PMS7003;66893;44.316;0.092;2024-03-22T03:16:04;15.50;15.25;10.75
76784;PMS7003;66893;44.316;0.092;2024-03-22T03:18:30;18.50;17.50;11.50
76784;PMS7003;66893;44.316;0.092;2024-03-22T03:20:55;16.75;13.50;10.00
76784;PMS7003;66893;44.316;0.092;2024-03-22T03:23:20;17.50;16.25;10.75
76784;PMS7003;66893;44.316;0.092;2024-03-22T03:25:46;17.25;17.25;12.75
76784;PMS7003;66893;44.316;0.092;2024-03-22T03:28:11;14.00;11.75;9.50
76784;PMS7003;66893;44.316;0.092;2024-03-22T03:30:38;14.50;12.25;10.00
76784;PMS7003;66893;44.316;0.092;2024-03-22T03:33:03;19.75;18.25;11.75
76784;PMS7003;66893;44.316;0.092;2024-03-22T03:35:28;19.00;17.25;11.00
76784;PMS7003;66893;44.316;0.092;2024-03-22T03:37:54;19.50;18.75;10.75
76784;PMS7003;66893;44.316;0.092;2024-03-22T03:40:20;20.75;18.00;12.00
76784;PMS7003;66893;44.316;0.092;2024-03-22T03:42:46;17.00;14.75;11.00
76784;PMS7003;66893;44.316;0.092;2024-03-22T03:45:12;15.25;12.50;9.25
76784;PMS7003;66893;44.316;0.092;2024-03-22T03:47:37;20.50;16.25;11.50
76784;PMS7003;66893;44.316;0.092;2024-03-22T03:50:03;17.75;14.75;11.50
76784;PMS7003;66893;44.316;0.092;2024-03-22T03:52:28;19.75;19.00;12.00
76784;PMS7003;66893;44.316;0.092;2024-03-22T03:54:53;20.25;16.75;11.00
76784;PMS7003;66893;44.316;0.092;2024-03-22T03:57:19;21.75;14.75;10.25
76784;PMS7003;66893;44.316;0.092;2024-03-22T03:59:44;17.50;15.25;10.25
76784;PMS7003;66893;44.316;0.092;2024-03-22T04:02:09;16.75;16.25;11.50
76784;PMS7003;66893;44.316;0.092;2024-03-22T04:04:35;14.00;13.00;9.75
76784;PMS7003;66893;44.316;0.092;2024-03-22T04:07:00;18.00;15.75;10.75
76784;PMS7003;66893;44.316;0.092;2024-03-22T04:09:26;17.75;15.75;10.50
76784;PMS7003;66893;44.316;0.092;2024-03-22T04:11:51;14.33;13.33;10.33
76784;PMS7003;66893;44.316;0.092;2024-03-22T04:14:16;18.25;16.75;11.75
76784;PMS7003;66893;44.316;0.092;2024-03-22T04:16:42;17.75;17.50;12.25
76784;PMS7003;66893;44.316;0.092;2024-03-22T04:19:07;16.25;14.50;10.25
76784;PMS7003;66893;44.316;0.092;2024-03-22T04:21:32;17.75;16.50;10.50
76784;PMS7003;66893;44.316;0.092;2024-03-22T04:23:58;14.00;11.75;8.00
76784;PMS7003;66893;44.316;0.092;2024-03-22T04:26:23;13.75;12.00;9.00
76784;PMS7003;66893;44.316;0.092;2024-03-22T04:28:48;17.25;15.50;10.50
76784;PMS7003;66893;44.316;0.092;2024-03-22T04:31:14;20.25;17.00;10.75
76784;PMS7003;66893;44.316;0.092;2024-03-22T04:33:40;17.25;15.75;10.75
76784;PMS7003;66893;44.316;0.092;2024-03-22T04:36:06;15.25;13.25;10.00
76784;PMS7003;66893;44.316;0.092;2024-03-22T04:38:31;18.75;17.75;11.50
76784;PMS7003;66893;44.316;0.092;2024-03-22T04:40:57;25.25;17.50;11.50
76784;PMS7003;66893;44.316;0.092;2024-03-22T04:43:22;16.00;14.50;9.50
76784;PMS7003;66893;44.316;0.092;2024-03-22T04:45:48;20.00;16.00;10.50
76784;PMS7003;66893;44.316;0.092;2024-03-22T04:48:17;14.75;12.25;7.75
76784;PMS7003;66893;44.316;0.092;2024-03-22T04:50:43;23.00;17.25;11.25
76784;PMS7003;66893;44.316;0.092;2024-03-22T04:53:08;22.00;16.75;10.00
76784;PMS7003;66893;44.316;0.092;2024-03-22T04:55:34;23.00;20.50;12.25
76784;PMS7003;66893;44.316;0.092;2024-03-22T04:57:59;22.75;19.50;13.50
76784;PMS7003;66893;44.316;0.092;2024-03-22T05:00:24;19.50;16.50;11.25
76784;PMS7003;66893;44.316;0.092;2024-03-22T05:02:52;16.00;16.00;11.75
76784;PMS7003;66893;44.316;0.092;2024-03-22T05:05:17;19.25;17.50;11.00
76784;PMS7003;66893;44.316;0.092;2024-03-22T05:07:43;19.00;18.00;12.25
76784;PMS7003;66893;44.316;0.092;2024-03-22T05:10:08;22.25;19.00;12.00
76784;PMS7003;66893;44.316;0.092;2024-03-22T05:12:35;22.75;18.50;12.75
76784;PMS7003;66893;44.316;0.092;2024-03-22T05:15:01;21.25;16.25;12.25
76784;PMS7003;66893;44.316;0.092;2024-03-22T05:17:27;17.00;15.00;11.00
76784;PMS7003;66893;44.316;0.092;2024-03-22T05:19:54;20.75;17.75;12.50
76784;PMS7003;66893;44.316;0.092;2024-03-22T05:22:19;20.75;17.00;10.50
76784;PMS7003;66893;44.316;0.092;2024-03-22T05:24:45;22.00;19.25;12.25
76784;PMS7003;66893;44.316;0.092;2024-03-22T05:27:10;19.00;18.25;12.75
76784;PMS7003;66893;44.316;0.092;2024-03-22T05:29:36;20.00;17.00;10.75
76784;PMS7003;66893;44.316;0.092;2024-03-22T05:32:01;17.25;15.50;10.75
76784;PMS7003;66893;44.316;0.092;2024-03-22T05:34:28;16.00;14.00;10.50
76784;PMS7003;66893;44.316;0.092;2024-03-22T05:36:53;18.50;14.75;11.25
76784;PMS7003;66893;44.316;0.092;2024-03-22T05:39:19;14.75;13.25;9.50
76784;PMS7003;66893;44.316;0.092;2024-03-22T05:41:44;18.25;18.25;11.50
76784;PMS7003;66893;44.316;0.092;2024-03-22T05:44:11;16.75;14.50;10.50
76784;PMS7003;66893;44.316;0.092;2024-03-22T05:46:36;15.75;11.75;9.50
76784;PMS7003;66893;44.316;0.092;2024-03-22T05:49:01;22.25;18.50;11.00
76784;PMS7003;66893;44.316;0.092;2024-03-22T05:51:27;17.75;15.50;9.00
76784;PMS7003;66893;44.316;0.092;2024-03-22T05:53:53;21.25;19.00;11.75
76784;PMS7003;66893;44.316;0.092;2024-03-22T05:56:18;17.50;17.50;11.25
76784;PMS7003;66893;44.316;0.092;2024-03-22T05:58:44;16.50;14.75;10.25
76784;PMS7003;66893;44.316;0.092;2024-03-22T06:01:09;20.75;17.50;11.00
76784;PMS7003;66893;44.316;0.092;2024-03-22T06:03:34;12.25;12.25;8.75
76784;PMS7003;66893;44.316;0.092;2024-03-22T06:06:00;15.75;15.50;9.75
76784;PMS7003;66893;44.316;0.092;2024-03-22T06:08:26;20.00;14.75;9.25
76784;PMS7003;66893;44.316;0.092;2024-03-22T06:10:54;22.25;17.75;12.25
76784;PMS7003;66893;44.316;0.092;2024-03-22T06:13:20;18.50;15.25;10.00
76784;PMS7003;66893;44.316;0.092;2024-03-22T06:15:48;21.50;17.50;12.00
76784;PMS7003;66893;44.316;0.092;2024-03-22T06:18:13;17.50;15.00;9.75
76784;PMS7003;66893;44.316;0.092;2024-03-22T06:20:39;21.25;16.25;10.75
76784;PMS7003;66893;44.316;0.092;2024-03-22T06:23:04;18.25;15.50;10.75
76784;PMS7003;66893;44.316;0.092;2024-03-22T06:25:29;17.50;16.75;10.25
76784;PMS7003;66893;44.316;0.092;2024-03-22T06:27:54;16.50;16.50;11.75
76784;PMS7003;66893;44.316;0.092;2024-03-22T06:30:20;18.00;17.33;12.33
76784;PMS7003;66893;44.316;0.092;2024-03-22T06:32:45;17.75;16.00;10.50
76784;PMS7003;66893;44.316;0.092;2024-03-22T06:35:11;17.00;17.00;12.50
76784;PMS7003;66893;44.316;0.092;2024-03-22T06:37:37;16.75;16.50;10.75
76784;PMS7003;66893;44.316;0.092;2024-03-22T06:40:02;19.00;12.00;8.50
76784;PMS7003;66893;44.316;0.092;2024-03-22T06:42:28;16.00;14.25;10.75
76784;PMS7003;66893;44.316;0.092;2024-03-22T06:44:53;20.67;17.00;12.33
76784;PMS7003;66893;44.316;0.092;2024-03-22T06:47:18;17.50;14.50;10.00
76784;PMS7003;66893;44.316;0.092;2024-03-22T06:49:46;18.50;15.25;11.75
76784;PMS7003;66893;44.316;0.092;2024-03-22T06:52:11;19.75;17.75;11.25
76784;PMS7003;66893;44.316;0.092;2024-03-22T06:54:36;17.00;17.00;10.50
76784;PMS7003;66893;44.316;0.092;2024-03-22T06:57:02;15.75;12.50;8.25
76784;PMS7003;66893;44.316;0.092;2024-03-22T06:59:27;22.50;16.50;11.50
76784;PMS7003;66893;44.316;0.092;2024-03-22T07:01:52;19.00;17.33;10.33
76784;PMS7003;66893;44.316;0.092;2024-03-22T07:04:17;14.75;14.50;9.75
76784;PMS7003;66893;44.316;0.092;2024-03-22T07:06:43;17.50;15.75;11.75
76784;PMS7003;66893;44.316;0.092;2024-03-22T07:09:08;17.67;16.67;12.00
76784;PMS7003;66893;44.316;0.092;2024-03-22T07:11:33;17.25;13.75;9.50
76784;PMS7003;66893;44.316;0.092;2024-03-22T07:13:59;18.25;15.75;10.25
76784;PMS7003;66893;44.316;0.092;2024-03-22T07:16:24;15.50;15.00;10.50
76784;PMS7003;66893;44.316;0.092;2024-03-22T07:18:50;21.75;14.50;10.00
76784;PMS7003;66893;44.316;0.092;2024-03-22T07:21:15;16.75;15.75;10.50
76784;PMS7003;66893;44.316;0.092;2024-03-22T07:23:40;17.25;15.00;10.50
76784;PMS7003;66893;44.316;0.092;2024-03-22T07:26:06;13.50;11.25;9.50
76784;PMS7003;66893;44.316;0.092;2024-03-22T07:28:33;15.50;15.25;10.50
76784;PMS7003;66893;44.316;0.092;2024-03-22T07:30:58;15.25;13.00;10.00
76784;PMS7003;66893;44.316;0.092;2024-03-22T07:33:23;17.50;17.50;12.00
76784;PMS7003;66893;44.316;0.092;2024-03-22T07:35:48;21.00;17.00;12.50
76784;PMS7003;66893;44.316;0.092;2024-03-22T07:38:14;13.00;10.75;8.25
76784;PMS7003;66893;44.316;0.092;2024-03-22T07:40:39;18.00;16.50;11.25
76784;PMS7003;66893;44.316;0.092;2024-03-22T07:43:04;17.50;14.50;10.75
76784;PMS7003;66893;44.316;0.092;2024-03-22T07:45:36;19.75;16.25;11.50
76784;PMS7003;66893;44.316;0.092;2024-03-22T07:48:01;16.25;15.75;10.25
76784;PMS7003;66893;44.316;0.092;2024-03-22T07:50:26;17.00;13.00;10.50
76784;PMS7003;66893;44.316;0.092;2024-03-22T07:52:52;14.75;14.00;9.00
76784;PMS7003;66893;44.316;0.092;2024-03-22T07:55:17;16.50;15.25;10.50
76784;PMS7003;66893;44.316;0.092;2024-03-22T07:57:42;16.50;14.25;9.75
76784;PMS7003;66893;44.316;0.092;2024-03-22T08:00:08;18.75;18.75;12.50
76784;PMS7003;66893;44.316;0.092;2024-03-22T08:02:34;19.25;16.25;11.00
76784;PMS7003;66893;44.316;0.092;2024-03-22T08:04:59;18.25;16.50;11.25
76784;PMS7003;66893;44.316;0.092;2024-03-22T08:07:24;15.75;12.25;11.00
76784;PMS7003;66893;44.316;0.092;2024-03-22T08:09:50;19.25;18.00;12.50
76784;PMS7003;66893;44.316;0.092;2024-03-22T08:12:15;16.25;11.50;9.25
76784;PMS7003;66893;44.316;0.092;2024-03-22T08:14:41;18.75;16.00;12.00
76784;PMS7003;66893;44.316;0.092;2024-03-22T08:17:07;15.75;15.75;11.50
76784;PMS7003;66893;44.316;0.092;2024-03-22T08:19:34;21.50;17.50;12.75
76784;PMS7003;66893;44.316;0.092;2024-03-22T08:21:59;16.25;15.50;11.00
76784;PMS7003;66893;44.316;0.092;2024-03-22T08:24:24;17.75;16.50;12.00
76784;PMS7003;66893;44.316;0.092;2024-03-22T08:26:50;21.00;20.00;15.33
76784;PMS7003;66893;44.316;0.092;2024-03-22T08:29:15;28.50;22.75;17.00
76784;PMS7003;66893;44.316;0.092;2024-03-22T08:31:40;27.50;27.25;18.50
76784;PMS7003;66893;44.316;0.092;2024-03-22T08:34:07;32.50;25.00;18.75
76784;PMS7003;66893;44.316;0.092;2024-03-22T08:36:32;29.75;25.00;18.00
76784;PMS7003;66893;44.316;0.092;2024-03-22T08:38:57;36.50;31.75;21.75
76784;PMS7003;66893;44.316;0.092;2024-03-22T08:41:23;38.00;32.50;20.25
76784;PMS7003;66893;44.316;0.092;2024-03-22T08:43:48;33.25;32.25;20.50
76784;PMS7003;66893;44.316;0.092;2024-03-22T08:46:13;37.00;31.00;19.50
76784;PMS7003;66893;44.316;0.092;2024-03-22T08:48:39;31.50;30.00;20.50
76784;PMS7003;66893;44.316;0.092;2024-03-22T08:51:04;33.00;29.25;18.00
76784;PMS7003;66893;44.316;0.092;2024-03-22T08:53:30;32.00;26.00;17.00
76784;PMS7003;66893;44.316;0.092;2024-03-22T08:55:55;33.75;27.75;18.25
76784;PMS7003;66893;44.316;0.092;2024-03-22T08:58:20;27.50;24.25;16.25
76784;PMS7003;66893;44.316;0.092;2024-03-22T09:00:46;32.00;27.25;15.50
76784;PMS7003;66893;44.316;0.092;2024-03-22T09:03:11;22.50;21.75;15.75
76784;PMS7003;66893;44.316;0.092;2024-03-22T09:05:36;24.75;23.00;15.75
76784;PMS7003;66893;44.316;0.092;2024-03-22T09:08:02;30.00;25.75;18.50
76784;PMS7003;66893;44.316;0.092;2024-03-22T09:10:29;25.25;22.25;15.25
76784;PMS7003;66893;44.316;0.092;2024-03-22T09:12:54;27.50;22.50;17.00
76784;PMS7003;66893;44.316;0.092;2024-03-22T09:15:20;30.50;26.00;19.25
76784;PMS7003;66893;44.316;0.092;2024-03-22T09:17:46;24.00;23.25;18.00
76784;PMS7003;66893;44.316;0.092;2024-03-22T09:20:11;24.25;22.75;16.00
76784;PMS7003;66893;44.316;0.092;2024-03-22T09:22:37;17.50;17.25;15.25
76784;PMS7003;66893;44.316;0.092;2024-03-22T09:25:04;22.25;19.25;13.75
76784;PMS7003;66893;44.316;0.092;2024-03-22T09:27:30;19.50;17.75;11.00
76784;PMS7003;66893;44.316;0.092;2024-03-22T09:29:55;29.25;23.75;14.25
76784;PMS7003;66893;44.316;0.092;2024-03-22T09:32:20;21.50;20.50;15.25
76784;PMS7003;66893;44.316;0.092;2024-03-22T09:34:48;27.50;24.50;17.75
76784;PMS7003;66893;44.316;0.092;2024-03-22T09:37:13;26.50;22.75;15.00
76784;PMS7003;66893;44.316;0.092;2024-03-22T09:39:38;23.00;19.25;13.00
76784;PMS7003;66893;44.316;0.092;2024-03-22T09:42:04;20.67;20.33;14.33
76784;PMS7003;66893;44.316;0.092;2024-03-22T09:44:31;20.00;17.50;13.75
76784;PMS7003;66893;44.316;0.092;2024-03-22T09:46:57;19.75;18.25;13.75
76784;PMS7003;66893;44.316;0.092;2024-03-22T09:49:24;20.25;19.25;12.75
76784;PMS7003;66893;44.316;0.092;2024-03-22T09:51:49;18.75;18.75;13.00
76784;PMS7003;66893;44.316;0.092;2024-03-22T09:54:16;21.75;17.25;12.50
76784;PMS7003;66893;44.316;0.092;2024-03-22T09:56:41;23.25;18.75;12.25
76784;PMS7003;66893;44.316;0.092;2024-03-22T09:59:07;18.75;18.50;12.50
76784;PMS7003;66893;44.316;0.092;2024-03-22T10:01:35;21.50;15.75;12.25
76784;PMS7003;66893;44.316;0.092;2024-03-22T10:04:01;25.00;20.50;13.25
76784;PMS7003;66893;44.316;0.092;2024-03-22T10:06:28;20.75;19.50;14.50
76784;PMS7003;66893;44.316;0.092;2024-03-22T10:08:54;25.50;25.00;17.75
76784;PMS7003;66893;44.316;0.092;2024-03-22T10:11:19;20.25;20.25;14.25
76784;PMS7003;66893;44.316;0.092;2024-03-22T10:13:44;20.50;17.25;13.25
76784;PMS7003;66893;44.316;0.092;2024-03-22T10:16:10;23.25;20.25;13.75
76784;PMS7003;66893;44.316;0.092;2024-03-22T10:18:35;27.00;23.75;16.00
76784;PMS7003;66893;44.316;0.092;2024-03-22T10:21:01;20.25;18.25;12.50
76784;PMS7003;66893;44.316;0.092;2024-03-22T10:23:27;22.50;19.25;11.75
76784;PMS7003;66893;44.316;0.092;2024-03-22T10:25:52;24.00;19.50;13.00
76784;PMS7003;66893;44.316;0.092;2024-03-22T10:28:18;19.00;18.25;12.50
76784;PMS7003;66893;44.316;0.092;2024-03-22T10:30:43;22.75;19.25;15.00
76784;PMS7003;66893;44.316;0.092;2024-03-22T10:33:08;13.50;13.00;10.75
76784;PMS7003;66893;44.316;0.092;2024-03-22T10:35:34;14.25;12.00;11.00
76784;PMS7003;66893;44.316;0.092;2024-03-22T10:37:59;21.50;18.50;13.00
76784;PMS7003;66893;44.316;0.092;2024-03-22T10:40:26;16.75;15.75;13.00
76784;PMS7003;66893;44.316;0.092;2024-03-22T10:42:52;16.00;16.00;11.75
76784;PMS7003;66893;44.316;0.092;2024-03-22T10:45:18;18.75;17.75;12.50
76784;PMS7003;66893;44.316;0.092;2024-03-22T10:47:47;20.00;17.75;12.00
76784;PMS7003;66893;44.316;0.092;2024-03-22T10:50:14;17.25;14.50;11.00
76784;PMS7003;66893;44.316;0.092;2024-03-22T10:52:54;16.25;14.50;10.75
76784;PMS7003;66893;44.316;0.092;2024-03-22T10:55:22;17.75;14.75;12.25
76784;PMS7003;66893;44.316;0.092;2024-03-22T10:57:49;19.50;16.25;12.00
76784;PMS7003;66893;44.316;0.092;2024-03-22T11:00:15;18.50;18.50;14.25
76784;PMS7003;66893;44.316;0.092;2024-03-22T11:02:43;22.75;19.00;13.25
76784;PMS7003;66893;44.316;0.092;2024-03-22T11:05:15;21.75;17.50;13.00
76784;PMS7003;66893;44.316;0.092;2024-03-22T11:07:43;19.50;15.25;11.75
76784;PMS7003;66893;44.316;0.092;2024-03-22T11:10:08;16.25;14.00;9.75
76784;PMS7003;66893;44.316;0.092;2024-03-22T11:12:33;22.75;20.25;14.25
76784;PMS7003;66893;44.316;0.092;2024-03-22T11:15:02;23.25;19.75;12.75
76784;PMS7003;66893;44.316;0.092;2024-03-22T11:17:27;20.75;19.00;13.25
76784;PMS7003;66893;44.316;0.092;2024-03-22T11:19:52;20.75;18.75;12.25
76784;PMS7003;66893;44.316;0.092;2024-03-22T11:22:18;20.25;18.50;14.00
76784;PMS7003;66893;44.316;0.092;2024-03-22T11:24:43;24.00;21.25;12.75
76784;PMS7003;66893;44.316;0.092;2024-03-22T11:27:09;21.00;17.25;12.00
76784;PMS7003;66893;44.316;0.092;2024-03-22T11:29:36;18.75;16.25;12.00
76784;PMS7003;66893;44.316;0.092;2024-03-22T11:32:04;20.50;16.75;11.50
76784;PMS7003;66893;44.316;0.092;2024-03-22T11:34:29;22.00;19.67;13.00
76784;PMS7003;66893;44.316;0.092;2024-03-22T11:36:54;24.00;16.75;11.50
76784;PMS7003;66893;44.316;0.092;2024-03-22T11:39:20;21.25;17.50;11.25
76784;PMS7003;66893;44.316;0.092;2024-03-22T11:41:49;17.00;12.50;9.75
76784;PMS7003;66893;44.316;0.092;2024-03-22T11:44:15;17.25;16.00;10.25
76784;PMS7003;66893;44.316;0.092;2024-03-22T11:46:44;15.00;13.00;10.50
76784;PMS7003;66893;44.316;0.092;2024-03-22T11:49:10;16.50;14.75;10.25
76784;PMS7003;66893;44.316;0.092;2024-03-22T11:51:35;13.25;12.25;8.00
76784;PMS7003;66893;44.316;0.092;2024-03-22T11:54:02;19.75;16.25;11.25
76784;PMS7003;66893;44.316;0.092;2024-03-22T11:56:28;24.50;21.25;15.50
76784;PMS7003;66893;44.316;0.092;2024-03-22T11:59:00;11.00;11.00;8.25
76784;PMS7003;66893;44.316;0.092;2024-03-22T12:01:26;11.25;10.75;7.25
76784;PMS7003;66893;44.316;0.092;2024-03-22T12:03:51;13.50;12.00;7.25
76784;PMS7003;66893;44.316;0.092;2024-03-22T12:06:16;15.75;13.75;9.25
76784;PMS7003;66893;44.316;0.092;2024-03-22T12:08:42;12.50;11.75;9.50
76784;PMS7003;66893;44.316;0.092;2024-03-22T12:11:08;14.00;11.75;8.00
76784;PMS7003;66893;44.316;0.092;2024-03-22T12:13:34;13.25;9.50;7.00
76784;PMS7003;66893;44.316;0.092;2024-03-22T12:15:59;11.00;11.00;7.00
76784;PMS7003;66893;44.316;0.092;2024-03-22T12:18:24;12.25;9.75;7.50
76784;PMS7003;66893;44.316;0.092;2024-03-22T12:20:50;9.50;9.25;6.00
76784;PMS7003;66893;44.316;0.092;2024-03-22T12:23:15;11.75;9.00;7.00
76784;PMS7003;66893;44.316;0.092;2024-03-22T12:25:40;9.50;9.00;6.50
76784;PMS7003;66893;44.316;0.092;2024-03-22T12:28:06;9.25;9.25;6.50
76784;PMS7003;66893;44.316;0.092;2024-03-22T12:30:31;8.00;8.00;6.25
76784;PMS7003;66893;44.316;0.092;2024-03-22T12:32:57;12.25;11.25;6.25
76784;PMS7003;66893;44.316;0.092;2024-03-22T12:35:22;13.50;10.50;8.00
76784;PMS7003;66893;44.316;0.092;2024-03-22T12:37:47;11.25;8.25;5.00
76784;PMS7003;66893;44.316;0.092;2024-03-22T12:40:13;9.00;8.00;6.75
76784;PMS7003;66893;44.316;0.092;2024-03-22T12:42:39;11.75;8.50;6.75
76784;PMS7003;66893;44.316;0.092;2024-03-22T12:45:04;7.75;7.75;6.00
76784;PMS7003;66893;44.316;0.092;2024-03-22T12:47:30;9.00;7.75;5.75
76784;PMS7003;66893;44.316;0.092;2024-03-22T12:49:55;7.00;7.00;5.25
76784;PMS7003;66893;44.316;0.092;2024-03-22T12:52:20;10.25;8.25;6.00
76784;PMS7003;66893;44.316;0.092;2024-03-22T12:54:46;8.00;8.00;6.00
76784;PMS7003;66893;44.316;0.092;2024-03-22T12:57:14;8.00;6.00;5.00
76784;PMS7003;66893;44.316;0.092;2024-03-22T12:59:39;6.75;6.50;5.75
76784;PMS7003;66893;44.316;0.092;2024-03-22T13:02:05;6.50;6.50;5.50
76784;PMS7003;66893;44.316;0.092;2024-03-22T13:04:31;6.00;6.00;4.25
76784;PMS7003;66893;44.316;0.092;2024-03-22T13:06:56;10.25;9.00;6.25
76784;PMS7003;66893;44.316;0.092;2024-03-22T13:09:21;8.75;7.00;6.00
76784;PMS7003;66893;44.316;0.092;2024-03-22T13:11:47;10.25;7.00;5.25
76784;PMS7003;66893;44.316;0.092;2024-03-22T13:14:13;8.50;7.25;6.00
76784;PMS7003;66893;44.316;0.092;2024-03-22T13:16:39;9.00;8.00;6.50
76784;PMS7003;66893;44.316;0.092;2024-03-22T13:19:04;6.75;6.75;5.50
76784;PMS7003;66893;44.316;0.092;2024-03-22T13:21:30;7.25;7.25;5.00
76784;PMS7003;66893;44.316;0.092;2024-03-22T13:23:56;9.75;7.00;5.00
76784;PMS7003;66893;44.316;0.092;2024-03-22T13:26:21;6.50;6.25;6.00
76784;PMS7003;66893;44.316;0.092;2024-03-22T13:28:46;6.50;5.75;5.00
76784;PMS7003;66893;44.316;0.092;2024-03-22T13:31:12;8.00;7.00;5.00
76784;PMS7003;66893;44.316;0.092;2024-03-22T13:33:37;8.00;6.00;4.00
76784;PMS7003;66893;44.316;0.092;2024-03-22T13:36:03;7.50;6.75;6.00
76784;PMS7003;66893;44.316;0.092;2024-03-22T13:38:29;7.75;6.00;5.00
76784;PMS7003;66893;44.316;0.092;2024-03-22T13:40:55;10.00;6.25;5.00
76784;PMS7003;66893;44.316;0.092;2024-03-22T13:43:21;6.25;5.00;4.75